Time;durP1;ratioP1;P1;durP2;ratioP2;P2;SDS_P1;SDS_P2;PMS_P1;PMS_P2;Temp;Humidity;BMP_temperature;BMP_pressure;BME280_temperature;BME280_humidity;BME280_pressure;Samples;Min_cycle;Max_cycle;Signal;HPM_P1;HPM_P2
2023/09/22 00:00:37;;;;;;;17.80;16.00;;;;;;;;;;5086430;28;20284;-79
2023/09/22 00:03:05;;;;;;;18.43;16.47;;;;;;;;;;5081034;28;20182;-80
2023/09/22 00:05:31;;;;;;;17.03;15.33;;;;;;;;;;5079092;28;20174;-79
2023/09/22 00:07:57;;;;;;;17.30;15.60;;;;;;;;;;5096703;28;20271;-79
2023/09/22 00:10:23;;;;;;;17.23;15.57;;;;;;;;;;5061486;28;20213;-79
2023/09/22 00:12:49;;;;;;;17.73;15.87;;;;;;;;;;5064437;28;20175;-79
2023/09/22 00:15:15;;;;;;;16.43;14.83;;;;;;;;;;5088508;28;20186;-79
2023/09/22 00:17:42;;;;;;;17.07;15.37;;;;;;;;;;5058446;28;20188;-79
2023/09/22 00:20:09;;;;;;;16.10;14.50;;;;;;;;;;5093867;28;20185;-79
2023/09/22 00:22:35;;;;;;;16.87;15.03;;;;;;;;;;5077798;28;20181;-79
2023/09/22 00:25:01;;;;;;;16.57;14.90;;;;;;;;;;5063704;28;20186;-79
2023/09/22 00:27:27;;;;;;;17.97;16.23;;;;;;;;;;5085582;28;20317;-79
2023/09/22 00:29:53;;;;;;;19.53;17.27;;;;;;;;;;5057975;28;20187;-79
2023/09/22 00:32:20;;;;;;;18.77;17.03;;;;;;;;;;5073893;28;20182;-79
2023/09/22 00:34:46;;;;;;;20.20;18.13;;;;;;;;;;5061520;28;20185;-76
2023/09/22 00:37:12;;;;;;;21.30;17.97;;;;;;;;;;5077403;28;20228;-76
2023/09/22 00:39:38;;;;;;;21.00;18.90;;;;;;;;;;5078859;28;20186;-76
2023/09/22 00:42:08;;;;;;;22.43;20.13;;;;;;;;;;5081497;28;20248;-76
2023/09/22 00:44:34;;;;;;;25.07;21.03;;;;;;;;;;5061303;28;20251;-76
2023/09/22 00:47:00;;;;;;;24.57;20.97;;;;;;;;;;5077092;28;20214;-76
2023/09/22 00:49:26;;;;;;;23.80;21.30;;;;;;;;;;5076906;28;20256;-76
2023/09/22 00:51:52;;;;;;;24.47;22.07;;;;;;;;;;5077097;28;20232;-79
2023/09/22 00:54:19;;;;;;;25.67;23.00;;;;;;;;;;5060819;28;20171;-79
2023/09/22 00:56:46;;;;;;;26.77;22.37;;;;;;;;;;5057489;28;20191;-78
2023/09/22 00:59:13;;;;;;;25.80;23.07;;;;;;;;;;5074392;28;20193;-79
2023/09/22 01:01:39;;;;;;;27.70;24.70;;;;;;;;;;5085835;28;20190;-79
2023/09/22 01:04:13;;;;;;;27.03;24.27;;;;;;;;;;5072273;28;20534;-78
2023/09/22 01:06:39;;;;;;;27.40;24.70;;;;;;;;;;5050470;28;20234;-75
2023/09/22 01:09:06;;;;;;;26.70;24.00;;;;;;;;;;5061977;28;20184;-75
2023/09/22 01:11:34;;;;;;;27.90;25.03;;;;;;;;;;5065004;28;20194;-75
2023/09/22 01:14:00;;;;;;;28.87;25.10;;;;;;;;;;5054218;28;20251;-75
2023/09/22 01:16:26;;;;;;;28.43;25.53;;;;;;;;;;5071204;28;20211;-74
2023/09/22 01:18:52;;;;;;;27.50;24.63;;;;;;;;;;5069743;28;20187;-75
2023/09/22 01:21:19;;;;;;;29.10;26.00;;;;;;;;;;5071294;28;20188;-74
2023/09/22 01:23:45;;;;;;;30.10;26.73;;;;;;;;;;5054958;28;20218;-75
2023/09/22 01:26:11;;;;;;;30.60;27.33;;;;;;;;;;5053172;28;20187;-76
2023/09/22 01:28:37;;;;;;;29.23;26.13;;;;;;;;;;5057649;28;20195;-75
2023/09/22 01:31:03;;;;;;;29.47;26.27;;;;;;;;;;5067693;28;20202;-75
2023/09/22 01:33:29;;;;;;;28.57;25.57;;;;;;;;;;5070120;28;20276;-76
2023/09/22 01:35:55;;;;;;;28.07;25.00;;;;;;;;;;5070756;28;20190;-78
2023/09/22 01:38:25;;;;;;;27.77;24.40;;;;;;;;;;5053528;28;20237;-78
2023/09/22 01:40:52;;;;;;;25.60;22.80;;;;;;;;;;5065520;28;20180;-75
2023/09/22 01:43:18;;;;;;;25.60;22.80;;;;;;;;;;5066148;28;20310;-75
2023/09/22 01:45:44;;;;;;;28.03;22.97;;;;;;;;;;5061270;28;20215;-75
2023/09/22 01:48:10;;;;;;;24.87;22.23;;;;;;;;;;5054665;28;20199;-75
2023/09/22 01:50:37;;;;;;;26.87;23.43;;;;;;;;;;5066799;28;20188;-75
2023/09/22 01:53:10;;;;;;;26.90;22.40;;;;;;;;;;5066440;28;20184;-75
2023/09/22 01:55:39;;;;;;;25.50;22.43;;;;;;;;;;5055455;28;20191;-75
2023/09/22 01:58:05;;;;;;;23.17;20.70;;;;;;;;;;5072537;28;20226;-78
2023/09/22 02:00:33;;;;;;;22.90;18.70;;;;;;;;;;5068709;28;20176;-78
2023/09/22 02:02:59;;;;;;;21.03;18.40;;;;;;;;;;5068172;28;20227;-79
2023/09/22 02:05:25;;;;;;;18.93;16.97;;;;;;;;;;5075922;28;20191;-78
2023/09/22 02:07:51;;;;;;;20.77;17.13;;;;;;;;;;5071221;28;20175;-78
2023/09/22 02:10:18;;;;;;;21.43;18.23;;;;;;;;;;5069361;28;20178;-78
2023/09/22 02:12:44;;;;;;;19.87;17.53;;;;;;;;;;5049765;28;20192;-78
2023/09/22 02:15:10;;;;;;;21.07;18.17;;;;;;;;;;5039467;28;20199;-76
2023/09/22 02:17:43;;;;;;;20.67;17.43;;;;;;;;;;5069943;28;20235;-75
2023/09/22 02:20:18;;;;;;;18.90;16.27;;;;;;;;;;5069237;28;20181;-75
2023/09/22 02:22:47;;;;;;;19.23;16.70;;;;;;;;;;5035981;28;20219;-75
2023/09/22 02:25:14;;;;;;;19.57;16.80;;;;;;;;;;5036890;28;20183;-75
2023/09/22 02:27:40;;;;;;;22.70;17.00;;;;;;;;;;5042964;28;20233;-75
2023/09/22 02:30:08;;;;;;;20.10;16.23;;;;;;;;;;5055424;28;20179;-75
2023/09/22 02:32:35;;;;;;;18.07;16.13;;;;;;;;;;5039299;28;20283;-75
2023/09/22 02:35:01;;;;;;;22.57;16.23;;;;;;;;;;5056388;28;20257;-75
2023/09/22 02:37:28;;;;;;;21.80;16.73;;;;;;;;;;5056240;28;20179;-75
2023/09/22 02:39:54;;;;;;;17.40;15.40;;;;;;;;;;5055432;28;20180;-75
2023/09/22 02:42:20;;;;;;;22.43;15.70;;;;;;;;;;5054455;28;20223;-75
2023/09/22 02:44:46;;;;;;;19.43;15.30;;;;;;;;;;5042004;28;20230;-75
2023/09/22 02:47:13;;;;;;;18.13;15.10;;;;;;;;;;5054876;28;20208;-78
2023/09/22 02:49:39;;;;;;;19.33;15.37;;;;;;;;;;5068701;28;20264;-78
2023/09/22 02:52:05;;;;;;;18.83;15.00;;;;;;;;;;5036389;28;20177;-78
2023/09/22 02:54:31;;;;;;;17.93;14.40;;;;;;;;;;5035539;28;20177;-78
2023/09/22 02:56:57;;;;;;;17.10;13.97;;;;;;;;;;5036325;28;20173;-78
2023/09/22 02:59:23;;;;;;;20.33;14.77;;;;;;;;;;5052141;28;20208;-78
2023/09/22 03:01:49;;;;;;;19.03;14.40;;;;;;;;;;5048165;28;20192;-78
2023/09/22 03:04:15;;;;;;;18.60;13.47;;;;;;;;;;5053686;28;20176;-76
2023/09/22 03:06:41;;;;;;;17.10;13.37;;;;;;;;;;5040536;28;20176;-76
2023/09/22 03:09:09;;;;;;;16.53;12.93;;;;;;;;;;5038294;28;20191;-76
2023/09/22 03:11:35;;;;;;;16.43;12.87;;;;;;;;;;5055137;28;20194;-76
2023/09/22 03:14:03;;;;;;;16.87;12.87;;;;;;;;;;5053685;28;20325;-76
2023/09/22 03:16:29;;;;;;;15.10;12.93;;;;;;;;;;5041962;28;20263;-76
2023/09/22 03:18:55;;;;;;;16.60;13.13;;;;;;;;;;5038948;28;20199;-75
2023/09/22 03:21:22;;;;;;;16.20;12.80;;;;;;;;;;5055184;28;20210;-75
2023/09/22 03:23:52;;;;;;;18.40;13.57;;;;;;;;;;5038665;28;20212;-78
2023/09/22 03:26:18;;;;;;;16.93;13.43;;;;;;;;;;5050648;28;20177;-78
2023/09/22 03:28:48;;;;;;;21.77;13.37;;;;;;;;;;5074901;28;20183;-78
2023/09/22 03:31:14;;;;;;;22.57;13.70;;;;;;;;;;5041564;28;20189;-78
2023/09/22 03:33:40;;;;;;;18.60;13.67;;;;;;;;;;5054259;28;20214;-78
2023/09/22 03:36:10;;;;;;;19.27;13.90;;;;;;;;;;5047054;28;20270;-78
2023/09/22 03:38:36;;;;;;;23.27;14.53;;;;;;;;;;5046419;28;20188;-75
2023/09/22 03:41:02;;;;;;;20.40;14.37;;;;;;;;;;5033345;28;20199;-75
2023/09/22 03:43:28;;;;;;;20.27;14.23;;;;;;;;;;5038986;28;20211;-75
2023/09/22 03:45:55;;;;;;;23.40;14.37;;;;;;;;;;5034482;28;20192;-75
2023/09/22 03:48:22;;;;;;;16.87;14.20;;;;;;;;;;5053056;28;20192;-75
2023/09/22 03:50:48;;;;;;;20.33;15.17;;;;;;;;;;5054781;28;20176;-76
2023/09/22 03:53:14;;;;;;;20.57;14.53;;;;;;;;;;5070087;28;20274;-78
2023/09/22 03:55:40;;;;;;;21.23;14.47;;;;;;;;;;5044647;28;20184;-79
2023/09/22 03:58:07;;;;;;;21.43;14.80;;;;;;;;;;5052392;28;20219;-79
2023/09/22 04:00:33;;;;;;;21.07;14.80;;;;;;;;;;5063717;28;20259;-78
2023/09/22 04:03:03;;;;;;;18.87;14.63;;;;;;;;;;5053324;28;20231;-76
2023/09/22 04:05:30;;;;;;;21.30;14.60;;;;;;;;;;5043379;28;20203;-75
2023/09/22 04:07:57;;;;;;;19.60;14.53;;;;;;;;;;5063655;28;20229;-76
2023/09/22 04:10:23;;;;;;;20.63;14.63;;;;;;;;;;5043364;28;20275;-76
2023/09/22 04:12:50;;;;;;;21.33;14.70;;;;;;;;;;5069759;28;20266;-75
2023/09/22 04:15:16;;;;;;;25.60;15.37;;;;;;;;;;5051505;28;20191;-76
2023/09/22 04:17:42;;;;;;;21.58;15.20;;;;;;;;;;5042886;28;20470;-75
2023/09/22 04:20:10;;;;;;;20.30;15.03;;;;;;;;;;5064335;28;20180;-76
2023/09/22 04:22:37;;;;;;;24.20;14.67;;;;;;;;;;5036143;28;20208;-75
2023/09/22 04:27:39;;;;;;;20.83;14.13;;;;;;;;;;5072768;28;20267;-76
2023/09/22 04:30:07;;;;;;;21.07;13.90;;;;;;;;;;5068239;28;20187;-79
2023/09/22 04:32:33;;;;;;;19.00;13.17;;;;;;;;;;5078666;28;20187;-78
2023/09/22 04:35:06;;;;;;;15.53;12.30;;;;;;;;;;5071165;28;20183;-78
2023/09/22 04:37:32;;;;;;;16.63;12.20;;;;;;;;;;5056367;28;20179;-79
2023/09/22 04:39:58;;;;;;;15.03;11.70;;;;;;;;;;5055725;28;20281;-78
2023/09/22 04:42:25;;;;;;;16.93;12.27;;;;;;;;;;5061533;28;20294;-78
2023/09/22 04:44:51;;;;;;;16.60;11.50;;;;;;;;;;5036863;28;20255;-75
2023/09/22 04:47:18;;;;;;;14.73;10.67;;;;;;;;;;5054619;28;20164;-75
2023/09/22 04:49:44;;;;;;;15.77;10.73;;;;;;;;;;5045691;28;20184;-76
2023/09/22 04:52:10;;;;;;;15.27;10.20;;;;;;;;;;5068652;28;20184;-76
2023/09/22 04:54:36;;;;;;;15.17;10.37;;;;;;;;;;5056162;28;20332;-77
2023/09/22 04:57:03;;;;;;;16.43;10.73;;;;;;;;;;5056092;28;20171;-77
2023/09/22 04:59:29;;;;;;;14.73;9.97;;;;;;;;;;5046795;28;20190;-77
2023/09/22 05:01:57;;;;;;;13.07;9.37;;;;;;;;;;5073432;28;20187;-78
2023/09/22 05:04:23;;;;;;;11.20;9.17;;;;;;;;;;5056212;28;20178;-79
2023/09/22 05:06:50;;;;;;;11.10;9.53;;;;;;;;;;5074670;28;20172;-79
2023/09/22 05:09:16;;;;;;;10.60;8.27;;;;;;;;;;5056589;28;20179;-79
2023/09/22 05:11:42;;;;;;;14.13;9.33;;;;;;;;;;5056380;28;20221;-79
2023/09/22 05:14:08;;;;;;;12.10;8.87;;;;;;;;;;5040373;28;20191;-79
2023/09/22 05:16:35;;;;;;;13.13;8.93;;;;;;;;;;5047865;28;20278;-77
2023/09/22 05:19:02;;;;;;;13.80;9.10;;;;;;;;;;5020512;28;20187;-77
2023/09/22 05:21:28;;;;;;;12.27;8.93;;;;;;;;;;5019751;28;20191;-77
2023/09/22 05:23:54;;;;;;;11.73;8.73;;;;;;;;;;5035998;28;20261;-77
2023/09/22 05:26:20;;;;;;;12.00;8.57;;;;;;;;;;5036097;28;20231;-77
2023/09/22 05:28:49;;;;;;;10.40;8.13;;;;;;;;;;5019868;28;20184;-77
2023/09/22 05:31:16;;;;;;;10.67;8.07;;;;;;;;;;5036058;28;20171;-77
2023/09/22 05:33:42;;;;;;;12.70;8.00;;;;;;;;;;5019868;28;20211;-79
2023/09/22 05:36:09;;;;;;;10.23;8.13;;;;;;;;;;5019741;28;20188;-78
2023/09/22 05:38:36;;;;;;;12.63;7.83;;;;;;;;;;5036036;28;20180;-79
2023/09/22 05:41:02;;;;;;;11.53;8.37;;;;;;;;;;5020059;28;20191;-78
2023/09/22 05:43:31;;;;;;;9.93;7.67;;;;;;;;;;5036439;28;20273;-79
2023/09/22 05:45:57;;;;;;;10.83;7.70;;;;;;;;;;5036272;28;20204;-79
2023/09/22 05:48:23;;;;;;;11.00;8.03;;;;;;;;;;5019979;28;20229;-79
2023/09/22 05:50:59;;;;;;;13.10;7.53;;;;;;;;;;5023294;28;20184;-77
2023/09/22 05:53:25;;;;;;;9.10;7.50;;;;;;;;;;5039968;28;20211;-77
2023/09/22 05:56:11;;;;;;;13.17;7.90;;;;;;;;;;5057489;28;20183;-76
2023/09/22 05:58:41;;;;;;;12.27;7.73;;;;;;;;;;5039562;28;20179;-76
2023/09/22 06:01:07;;;;;;;9.17;7.23;;;;;;;;;;5039414;28;20234;-76
2023/09/22 06:03:34;;;;;;;10.10;7.20;;;;;;;;;;5057340;28;20286;-79
2023/09/22 06:06:04;;;;;;;10.73;7.20;;;;;;;;;;5024017;28;20180;-79
2023/09/22 06:08:31;;;;;;;11.63;7.10;;;;;;;;;;5039456;28;20176;-75
2023/09/22 06:11:01;;;;;;;9.07;6.97;;;;;;;;;;5039276;28;20180;-75
2023/09/22 06:13:27;;;;;;;14.57;7.57;;;;;;;;;;5057187;28;20263;-75
2023/09/22 06:15:53;;;;;;;9.80;7.33;;;;;;;;;;5022836;28;20215;-75
2023/09/22 06:18:19;;;;;;;9.60;7.00;;;;;;;;;;5023051;28;20180;-75
2023/09/22 06:20:45;;;;;;;13.30;7.30;;;;;;;;;;5039399;28;20187;-75
2023/09/22 06:23:11;;;;;;;10.33;6.80;;;;;;;;;;5039392;28;20254;-75
2023/09/22 06:25:37;;;;;;;11.17;6.83;;;;;;;;;;5022968;28;20224;-75
2023/09/22 06:28:05;;;;;;;9.80;6.40;;;;;;;;;;5056734;28;20280;-79
2023/09/22 06:30:34;;;;;;;7.40;6.33;;;;;;;;;;5023417;28;20184;-78
2023/09/22 06:33:00;;;;;;;7.47;5.67;;;;;;;;;;5039027;28;20176;-78
2023/09/22 06:35:26;;;;;;;10.77;5.50;;;;;;;;;;5056714;28;20547;-79
2023/09/22 06:37:53;;;;;;;10.33;5.77;;;;;;;;;;5038888;28;20191;-77
2023/09/22 06:40:19;;;;;;;8.37;5.03;;;;;;;;;;5022690;28;20180;-79
2023/09/22 06:42:45;;;;;;;10.57;4.97;;;;;;;;;;5038548;28;20362;-79
2023/09/22 06:45:12;;;;;;;9.40;5.03;;;;;;;;;;5062187;28;20207;-78
2023/09/22 06:47:41;;;;;;;15.07;4.63;;;;;;;;;;5056605;28;20172;-79
2023/09/22 06:50:09;;;;;;;8.20;4.47;;;;;;;;;;5056586;28;20180;-79
2023/09/22 06:52:45;;;;;;;10.63;4.90;;;;;;;;;;5055217;28;20184;-79
2023/09/22 06:55:13;;;;;;;10.93;4.50;;;;;;;;;;5064493;28;20240;-79
2023/09/22 06:57:42;;;;;;;9.17;4.20;;;;;;;;;;5075427;28;20204;-79
2023/09/22 07:00:15;;;;;;;9.63;4.20;;;;;;;;;;5042159;28;20295;-79
2023/09/22 07:02:48;;;;;;;5.93;3.60;;;;;;;;;;5075455;28;20260;-79
2023/09/22 07:05:14;;;;;;;8.97;3.93;;;;;;;;;;5075228;28;20171;-79
2023/09/22 07:07:40;;;;;;;6.53;3.70;;;;;;;;;;5041687;28;20262;-79
2023/09/22 07:10:10;;;;;;;4.23;3.33;;;;;;;;;;5075663;28;20274;-77
2023/09/22 07:12:37;;;;;;;7.30;3.60;;;;;;;;;;5075226;28;20186;-76
2023/09/22 07:15:03;;;;;;;4.90;3.63;;;;;;;;;;5058346;28;20187;-76
2023/09/22 07:17:29;;;;;;;7.50;4.00;;;;;;;;;;5058382;28;20175;-77
2023/09/22 07:19:56;;;;;;;6.67;3.43;;;;;;;;;;5053421;28;20184;-76
2023/09/22 07:22:22;;;;;;;7.53;3.77;;;;;;;;;;5054734;28;20200;-76
2023/09/22 07:24:51;;;;;;;6.13;3.20;;;;;;;;;;5051706;28;20188;-76
2023/09/22 07:27:17;;;;;;;5.93;3.60;;;;;;;;;;5075226;28;20279;-76
2023/09/22 07:29:43;;;;;;;4.73;2.83;;;;;;;;;;5075694;28;20184;-76
2023/09/22 07:32:09;;;;;;;6.10;3.00;;;;;;;;;;5074769;28;20183;-80
2023/09/22 07:34:35;;;;;;;6.47;3.00;;;;;;;;;;5074623;28;20175;-81
2023/09/22 07:37:01;;;;;;;5.87;3.00;;;;;;;;;;5057901;28;20274;-81
2023/09/22 07:39:27;;;;;;;5.50;2.83;;;;;;;;;;5074394;28;20217;-81
2023/09/22 07:41:53;;;;;;;4.37;2.57;;;;;;;;;;5057777;28;20956;-80
2023/09/22 07:44:21;;;;;;;5.73;3.10;;;;;;;;;;5057780;28;20219;-81
2023/09/22 07:46:51;;;;;;;5.37;2.80;;;;;;;;;;5058041;28;20183;-77
2023/09/22 07:49:17;;;;;;;4.73;2.50;;;;;;;;;;5074676;28;20187;-77
2023/09/22 07:51:43;;;;;;;7.07;2.70;;;;;;;;;;5074473;28;20183;-76
2023/09/22 07:54:10;;;;;;;3.93;2.60;;;;;;;;;;5057451;28;20190;-76
2023/09/22 07:56:36;;;;;;;2.70;2.50;;;;;;;;;;5074028;28;20202;-76
2023/09/22 07:59:03;;;;;;;4.90;2.57;;;;;;;;;;5074249;28;20171;-76
2023/09/22 08:01:29;;;;;;;4.93;2.23;;;;;;;;;;5073550;28;20190;-76
2023/09/22 08:03:55;;;;;;;4.83;2.23;;;;;;;;;;5073895;28;20296;-76
2023/09/22 08:06:22;;;;;;;4.43;2.20;;;;;;;;;;5074310;28;20270;-76
2023/09/22 08:08:49;;;;;;;4.20;2.20;;;;;;;;;;5074976;28;20179;-76
2023/09/22 08:11:17;;;;;;;5.73;2.10;;;;;;;;;;5057920;28;20204;-76
2023/09/22 08:13:43;;;;;;;2.67;1.67;;;;;;;;;;5057048;28;20210;-77
2023/09/22 08:16:10;;;;;;;4.70;1.80;;;;;;;;;;5074772;28;20179;-77
2023/09/22 08:18:38;;;;;;;4.93;2.10;;;;;;;;;;5057237;28;20183;-77
2023/09/22 08:21:07;;;;;;;6.70;1.70;;;;;;;;;;5074844;28;20182;-81
2023/09/22 08:23:33;;;;;;;5.00;1.93;;;;;;;;;;5057959;28;20285;-81
2023/09/22 08:25:59;;;;;;;2.73;1.87;;;;;;;;;;5057064;28;20175;-81
2023/09/22 08:28:26;;;;;;;5.87;2.13;;;;;;;;;;5074916;28;20294;-81
2023/09/22 08:30:56;;;;;;;3.17;1.80;;;;;;;;;;5057041;28;20232;-81
2023/09/22 08:33:22;;;;;;;3.70;1.57;;;;;;;;;;5071367;28;20190;-81
2023/09/22 08:35:48;;;;;;;4.17;1.50;;;;;;;;;;5074865;28;20171;-80
2023/09/22 08:38:14;;;;;;;2.20;1.40;;;;;;;;;;5056961;28;20183;-77
2023/09/22 08:40:41;;;;;;;3.70;1.80;;;;;;;;;;5073482;28;20214;-78
2023/09/22 08:43:08;;;;;;;3.20;1.50;;;;;;;;;;5056710;28;20243;-78
2023/09/22 08:45:36;;;;;;;3.70;1.70;;;;;;;;;;5055697;28;20440;-77
2023/09/22 08:48:02;;;;;;;4.18;1.77;;;;;;;;;;5051555;28;20400;-77
2023/09/22 08:50:28;;;;;;;3.40;1.67;;;;;;;;;;5058496;28;20413;-77
2023/09/22 08:52:54;;;;;;;2.90;1.50;;;;;;;;;;5057384;28;20451;-78
2023/09/22 08:55:23;;;;;;;3.47;1.60;;;;;;;;;;5056880;28;20466;-77
2023/09/22 08:57:49;;;;;;;3.28;1.50;;;;;;;;;;5056331;28;20486;-77
2023/09/22 09:00:20;;;;;;;3.33;1.60;;;;;;;;;;5040741;28;20454;-78
2023/09/22 09:02:53;;;;;;;4.10;1.53;;;;;;;;;;5041011;28;20433;-78
2023/09/22 09:05:23;;;;;;;7.63;1.47;;;;;;;;;;5063143;28;20472;-77
2023/09/22 09:07:50;;;;;;;3.13;1.40;;;;;;;;;;5057843;28;20186;-78
2023/09/22 09:10:30;;;;;;;2.10;1.30;;;;;;;;;;5057697;28;20182;-79
2023/09/22 09:12:56;;;;;;;4.67;1.20;;;;;;;;;;5040991;28;20266;-79
2023/09/22 09:15:26;;;;;;;2.23;1.10;;;;;;;;;;5057614;28;20175;-79
2023/09/22 09:18:03;;;;;;;3.70;1.23;;;;;;;;;;5057155;28;20261;-79
2023/09/22 09:20:29;;;;;;;3.20;1.30;;;;;;;;;;5057276;28;20265;-79
2023/09/22 09:22:55;;;;;;;1.60;1.13;;;;;;;;;;5056902;28;20214;-79
2023/09/22 09:25:21;;;;;;;2.83;1.20;;;;;;;;;;5077590;28;20175;-79
2023/09/22 09:27:47;;;;;;;2.97;1.60;;;;;;;;;;5061496;28;20227;-78
2023/09/22 09:30:15;;;;;;;2.67;1.17;;;;;;;;;;5046169;28;20183;-78
2023/09/22 09:32:42;;;;;;;2.47;1.30;;;;;;;;;;5062122;28;20171;-78
2023/09/22 09:35:09;;;;;;;2.30;1.10;;;;;;;;;;5079515;28;20246;-78
2023/09/22 09:37:35;;;;;;;2.57;1.30;;;;;;;;;;5045056;28;20183;-78
2023/09/22 09:40:03;;;;;;;2.50;1.40;;;;;;;;;;5061218;28;20183;-78
2023/09/22 09:42:31;;;;;;;4.20;1.40;;;;;;;;;;5061574;28;20202;-78
2023/09/22 09:44:57;;;;;;;3.73;1.30;;;;;;;;;;5061692;28;20195;-79
2023/09/22 09:47:30;;;;;;;2.70;1.20;;;;;;;;;;5061354;28;20179;-79
2023/09/22 09:49:57;;;;;;;3.13;1.10;;;;;;;;;;5061219;28;20221;-79
2023/09/22 09:52:29;;;;;;;1.50;1.17;;;;;;;;;;5078783;28;20171;-79
2023/09/22 09:55:07;;;;;;;2.00;1.03;;;;;;;;;;5060547;28;20175;-79
2023/09/22 09:57:34;;;;;;;2.50;1.20;;;;;;;;;;5060590;28;20186;-79
2023/09/22 10:00:03;;;;;;;2.67;1.20;;;;;;;;;;5060530;28;20172;-79
2023/09/22 10:02:29;;;;;;;2.60;1.30;;;;;;;;;;5060862;28;20207;-80
2023/09/22 10:04:56;;;;;;;3.13;1.13;;;;;;;;;;5044092;28;20206;-80
2023/09/22 10:07:22;;;;;;;2.43;1.10;;;;;;;;;;5043863;28;20488;-79
2023/09/22 10:09:49;;;;;;;2.30;1.13;;;;;;;;;;5061047;28;20179;-79
2023/09/22 10:12:15;;;;;;;3.47;1.20;;;;;;;;;;5044432;28;20311;-80
2023/09/22 10:14:51;;;;;;;7.17;1.30;;;;;;;;;;5059535;28;20402;-79
2023/09/22 10:17:24;;;;;;;4.25;1.20;;;;;;;;;;5061148;28;20402;-78
2023/09/22 10:19:51;;;;;;;3.97;1.10;;;;;;;;;;5060642;28;20175;-77
2023/09/22 10:22:16;;;;;;;2.57;1.20;;;;;;;;;;5044200;28;20190;-77
2023/09/22 10:24:42;;;;;;;2.00;1.27;;;;;;;;;;5043119;28;20407;-77
2023/09/22 10:27:15;;;;;;;3.17;1.42;;;;;;;;;;5043186;28;20466;-77
2023/09/22 10:29:42;;;;;;;4.00;1.35;;;;;;;;;;5077378;28;20421;-77
2023/09/22 10:34:51;;;;;;;1.77;1.07;;;;;;;;;;5061218;28;20188;-77
2023/09/22 10:37:27;;;;;;;2.60;1.00;;;;;;;;;;5072968;28;20180;-77
2023/09/22 10:39:55;;;;;;;1.77;1.20;;;;;;;;;;5073479;28;20171;-77
2023/09/22 10:42:22;;;;;;;1.97;1.10;;;;;;;;;;5057166;28;20169;-77
2023/09/22 10:44:58;;;;;;;3.07;1.20;;;;;;;;;;5057258;28;20236;-77
2023/09/22 10:47:25;;;;;;;3.57;1.37;;;;;;;;;;5057050;28;20171;-77
2023/09/22 10:49:51;;;;;;;2.93;1.30;;;;;;;;;;5057467;28;20259;-77
2023/09/22 10:52:18;;;;;;;3.93;1.23;;;;;;;;;;5057126;28;20212;-77
2023/09/22 10:54:46;;;;;;;2.90;1.30;;;;;;;;;;5072194;28;20420;-77
2023/09/22 10:57:29;;;;;;;2.83;1.30;;;;;;;;;;5055734;28;20172;-77
2023/09/22 10:59:56;;;;;;;1.70;1.20;;;;;;;;;;5072350;28;20201;-78
2023/09/22 11:02:29;;;;;;;4.73;1.30;;;;;;;;;;5072642;28;20176;-78
2023/09/22 11:04:56;;;;;;;1.43;0.90;;;;;;;;;;5072695;28;20172;-78
2023/09/22 11:07:36;;;;;;;2.93;1.30;;;;;;;;;;5072900;28;20431;-82
2023/09/22 11:10:02;;;;;;;2.97;1.20;;;;;;;;;;5056379;28;20175;-82
2023/09/22 11:12:28;;;;;;;3.40;1.37;;;;;;;;;;5056098;28;20188;-82
2023/09/22 11:14:55;;;;;;;1.67;1.10;;;;;;;;;;5055485;28;20187;-83
2023/09/22 11:17:21;;;;;;;2.15;1.20;;;;;;;;;;5071636;28;20416;-82
2023/09/22 11:19:54;;;;;;;2.17;1.20;;;;;;;;;;5071851;28;20415;-82
2023/09/22 11:22:21;;;;;;;1.92;1.20;;;;;;;;;;5055230;28;20442;-80
2023/09/22 11:24:47;;;;;;;2.13;1.23;;;;;;;;;;5071299;28;20400;-80
2023/09/22 11:27:13;;;;;;;1.92;1.10;;;;;;;;;;5054305;28;20443;-81
2023/09/22 11:29:40;;;;;;;1.80;1.10;;;;;;;;;;5056120;28;20512;-81
2023/09/22 11:32:07;;;;;;;2.53;1.30;;;;;;;;;;5071310;28;20392;-81
2023/09/22 11:34:33;;;;;;;2.43;1.20;;;;;;;;;;5072500;28;20238;-80
2023/09/22 11:36:59;;;;;;;3.53;1.00;;;;;;;;;;5071992;28;20176;-81
2023/09/22 11:39:34;;;;;;;1.83;1.00;;;;;;;;;;5056575;28;20179;-81
2023/09/22 11:42:01;;;;;;;1.00;0.90;;;;;;;;;;5056216;28;20193;-77
2023/09/22 11:44:27;;;;;;;2.63;1.10;;;;;;;;;;5072290;28;20210;-79
2023/09/22 11:46:53;;;;;;;2.55;1.13;;;;;;;;;;5054091;28;20462;-78
2023/09/22 11:49:20;;;;;;;2.00;1.10;;;;;;;;;;5071579;28;20419;-79
2023/09/22 11:51:56;;;;;;;1.80;1.15;;;;;;;;;;5054140;28;20400;-79
2023/09/22 11:54:24;;;;;;;3.40;1.15;;;;;;;;;;5073766;28;20399;-79
2023/09/22 11:56:52;;;;;;;2.35;1.20;;;;;;;;;;5075856;28;20413;-82
2023/09/22 11:59:19;;;;;;;3.60;1.20;;;;;;;;;;5077178;28;20172;-82
2023/09/22 12:01:46;;;;;;;2.47;1.33;;;;;;;;;;5075990;28;20174;-82
2023/09/22 12:04:12;;;;;;;2.23;1.13;;;;;;;;;;5058502;28;20218;-82
2023/09/22 12:06:40;;;;;;;2.13;1.20;;;;;;;;;;5054270;28;20422;-82
2023/09/22 12:09:06;;;;;;;2.95;1.20;;;;;;;;;;5075142;28;20430;-82
2023/09/22 12:11:32;;;;;;;3.57;1.27;;;;;;;;;;5076262;28;20181;-82
2023/09/22 12:14:00;;;;;;;2.58;1.25;;;;;;;;;;5057881;28;20410;-82
2023/09/22 12:16:26;;;;;;;2.58;1.27;;;;;;;;;;5070742;28;20419;-82
2023/09/22 12:18:52;;;;;;;3.27;1.30;;;;;;;;;;5070746;28;20176;-82
2023/09/22 12:21:19;;;;;;;4.03;1.70;;;;;;;;;;5050969;28;20191;-82
2023/09/22 12:23:45;;;;;;;1.93;1.20;;;;;;;;;;5072386;28;20221;-82
2023/09/22 12:26:11;;;;;;;2.33;1.30;;;;;;;;;;5039958;28;20399;-82
2023/09/22 12:28:37;;;;;;;3.33;1.30;;;;;;;;;;5068137;28;20219;-82
2023/09/22 12:31:03;;;;;;;2.63;1.50;;;;;;;;;;5054083;28;20182;-77
2023/09/22 12:33:29;;;;;;;3.10;1.50;;;;;;;;;;5073345;28;20424;-78
2023/09/22 12:35:55;;;;;;;1.70;1.17;;;;;;;;;;5040773;28;20172;-77
2023/09/22 12:38:22;;;;;;;4.03;1.43;;;;;;;;;;5057606;28;20205;-77
2023/09/22 12:40:50;;;;;;;2.97;1.53;;;;;;;;;;5038866;28;20232;-78
2023/09/22 12:43:16;;;;;;;4.97;1.37;;;;;;;;;;5054344;28;20207;-78
2023/09/22 12:45:43;;;;;;;1.83;1.10;;;;;;;;;;5026720;28;20224;-80
2023/09/22 12:48:10;;;;;;;1.97;1.10;;;;;;;;;;5057296;28;20175;-82
2023/09/22 12:50:36;;;;;;;1.77;1.10;;;;;;;;;;5032857;28;20179;-82
2023/09/22 12:53:03;;;;;;;1.20;1.00;;;;;;;;;;5036597;28;20191;-82
2023/09/22 12:55:29;;;;;;;1.77;1.25;;;;;;;;;;5024697;28;20449;-82
2023/09/22 12:57:55;;;;;;;2.90;1.40;;;;;;;;;;5039239;28;20400;-82
2023/09/22 13:00:22;;;;;;;2.53;1.20;;;;;;;;;;5051734;28;20400;-77
2023/09/22 13:02:48;;;;;;;2.28;1.33;;;;;;;;;;5053120;28;20458;-77
2023/09/22 13:05:15;;;;;;;4.30;1.85;;;;;;;;;;5052883;28;20478;-77
2023/09/22 13:07:41;;;;;;;2.13;1.20;;;;;;;;;;5020055;28;20416;-77
2023/09/22 13:10:08;;;;;;;2.38;1.30;;;;;;;;;;5053288;28;20435;-77
2023/09/22 13:12:42;;;;;;;2.80;1.25;;;;;;;;;;5052811;28;20411;-77
2023/09/22 13:15:09;;;;;;;2.45;1.33;;;;;;;;;;5053832;28;20407;-78
2023/09/22 13:17:36;;;;;;;4.93;1.50;;;;;;;;;;5054030;28;20168;-78
2023/09/22 13:20:03;;;;;;;1.90;1.20;;;;;;;;;;5022160;28;20195;-79
2023/09/22 13:22:29;;;;;;;1.50;1.00;;;;;;;;;;5055775;28;20194;-80
2023/09/22 13:24:55;;;;;;;3.07;1.47;;;;;;;;;;5040026;28;20180;-80
2023/09/22 13:27:21;;;;;;;3.33;1.40;;;;;;;;;;5056470;28;20227;-80
2023/09/22 13:29:47;;;;;;;4.17;1.30;;;;;;;;;;5056098;28;20183;-80
2023/09/22 13:32:14;;;;;;;3.17;1.50;;;;;;;;;;5040280;28;20188;-80
2023/09/22 13:34:40;;;;;;;2.17;1.33;;;;;;;;;;5039794;28;20176;-79
2023/09/22 13:37:06;;;;;;;3.40;1.40;;;;;;;;;;5069381;28;20203;-77
2023/09/22 13:39:33;;;;;;;2.20;1.30;;;;;;;;;;5039528;28;20179;-77
2023/09/22 13:41:59;;;;;;;3.33;1.30;;;;;;;;;;5073933;28;20179;-77
2023/09/22 13:44:25;;;;;;;3.13;1.60;;;;;;;;;;5056411;28;20207;-77
2023/09/22 13:46:51;;;;;;;2.67;1.40;;;;;;;;;;5039458;28;20321;-78
2023/09/22 13:49:18;;;;;;;2.40;1.37;;;;;;;;;;5073899;28;20176;-77
2023/09/22 13:51:44;;;;;;;3.13;1.30;;;;;;;;;;5070195;28;20229;-77
2023/09/22 13:54:11;;;;;;;3.17;1.30;;;;;;;;;;5042914;28;20214;-79
2023/09/22 13:56:37;;;;;;;3.27;1.30;;;;;;;;;;5074850;28;20178;-79
2023/09/22 13:59:03;;;;;;;3.07;1.50;;;;;;;;;;5061201;28;20175;-79
2023/09/22 14:01:29;;;;;;;2.07;1.20;;;;;;;;;;5061368;28;20195;-79
2023/09/22 14:03:55;;;;;;;2.73;1.40;;;;;;;;;;5050796;28;20243;-79
2023/09/22 14:06:24;;;;;;;5.13;1.30;;;;;;;;;;5070441;28;20192;-79
2023/09/22 14:08:53;;;;;;;2.33;1.17;;;;;;;;;;5055283;28;20175;-79
2023/09/22 14:11:19;;;;;;;2.03;1.20;;;;;;;;;;5053435;28;20176;-78
2023/09/22 14:13:45;;;;;;;2.07;1.47;;;;;;;;;;5048866;28;20187;-77
2023/09/22 14:16:11;;;;;;;2.83;1.30;;;;;;;;;;5059863;28;20414;-77
2023/09/22 14:18:37;;;;;;;2.93;1.20;;;;;;;;;;5060050;28;20178;-77
2023/09/22 14:21:03;;;;;;;2.53;1.23;;;;;;;;;;5066663;28;20421;-76
2023/09/22 14:23:29;;;;;;;3.23;1.40;;;;;;;;;;5065725;28;20206;-77
2023/09/22 14:25:59;;;;;;;3.10;1.20;;;;;;;;;;5038365;28;20180;-77
2023/09/22 14:28:25;;;;;;;3.00;1.40;;;;;;;;;;5051556;28;20255;-77
2023/09/22 14:30:51;;;;;;;2.78;1.35;;;;;;;;;;5067723;28;20437;-77
2023/09/22 14:33:18;;;;;;;2.67;1.30;;;;;;;;;;5060633;28;20263;-77
2023/09/22 14:35:44;;;;;;;2.83;1.27;;;;;;;;;;5057823;28;20190;-76
2023/09/22 14:38:10;;;;;;;3.47;1.40;;;;;;;;;;5050583;28;20195;-78